Time;durP1;ratioP1;P1;durP2;ratioP2;P2;SDS_P1;SDS_P2;PMS_P1;PMS_P2;Temp;Humidity;BMP_temperature;BMP_pressure;BME280_temperature;BME280_humidity;BME280_pressure;Samples;Min_cycle;Max_cycle;Signal;HPM_P1;HPM_P2
2023/12/06 00:00:09;;;;;;;23.13;13.90;;;3.70;99.90;;;;;;5123935;28;20538;-86
2023/12/06 00:02:36;;;;;;;29.70;16.10;;;3.70;99.90;;;;;;5126883;28;20865;-86
2023/12/06 00:05:10;;;;;;;27.57;14.83;;;3.60;99.90;;;;;;5120852;28;20457;-85
2023/12/06 00:07:36;;;;;;;26.90;16.13;;;3.60;99.90;;;;;;5126754;27;20526;-86
2023/12/06 00:10:05;;;;;;;31.97;18.57;;;3.50;99.90;;;;;;5136186;28;20836;-84
2023/12/06 00:12:32;;;;;;;29.57;17.43;;;3.40;99.90;;;;;;5125082;28;20465;-84
2023/12/06 00:14:59;;;;;;;33.30;16.83;;;3.50;99.90;;;;;;5133264;28;20453;-85
2023/12/06 00:17:26;;;;;;;37.83;18.60;;;3.50;99.90;;;;;;5125723;28;20956;-85
2023/12/06 00:19:52;;;;;;;36.50;20.30;;;3.50;99.90;;;;;;5118336;28;20451;-85
2023/12/06 00:22:19;;;;;;;35.63;20.43;;;3.40;99.90;;;;;;5119530;28;20573;-86
2023/12/06 00:24:46;;;;;;;37.53;20.00;;;3.50;99.90;;;;;;5131297;28;20541;-85
2023/12/06 00:27:14;;;;;;;36.27;18.40;;;3.50;99.90;;;;;;5118889;28;20466;-86
2023/12/06 00:29:41;;;;;;;41.67;20.70;;;3.50;99.90;;;;;;5123048;28;20516;-85
2023/12/06 00:32:08;;;;;;;36.23;19.33;;;3.50;99.90;;;;;;5120749;28;20868;-86
2023/12/06 00:34:35;;;;;;;40.80;19.10;;;3.50;99.90;;;;;;5134384;27;20827;-86
2023/12/06 00:37:01;;;;;;;40.50;19.77;;;3.60;99.90;;;;;;5133831;27;20454;-86
2023/12/06 00:39:28;;;;;;;40.60;21.77;;;3.60;99.90;;;;;;5127599;27;20472;-84
2023/12/06 00:41:56;;;;;;;34.93;19.63;;;3.60;99.90;;;;;;5121809;28;20493;-85
2023/12/06 00:44:24;;;;;;;40.33;20.00;;;3.60;99.90;;;;;;5134690;27;20455;-82
2023/12/06 00:46:51;;;;;;;94.13;40.97;;;3.60;99.90;;;;;;5132366;27;20524;-82
2023/12/06 00:49:18;;;;;;;40.60;22.70;;;3.60;99.90;;;;;;5127165;28;20480;-83
2023/12/06 00:51:45;;;;;;;41.80;23.07;;;3.60;99.90;;;;;;5127354;28;20864;-84
2023/12/06 00:54:12;;;;;;;33.00;20.70;;;3.60;99.90;;;;;;5135502;27;20481;-84
2023/12/06 00:56:38;;;;;;;34.00;19.60;;;3.60;99.90;;;;;;5146900;27;20543;-86
2023/12/06 00:59:05;;;;;;;34.70;20.30;;;3.50;99.90;;;;;;5143959;27;20556;-85
2023/12/06 01:01:33;;;;;;;36.90;19.20;;;3.50;99.90;;;;;;5139096;27;20484;-86
2023/12/06 01:04:00;;;;;;;38.83;22.00;;;3.50;99.90;;;;;;5131324;27;20837;-86
2023/12/06 01:06:27;;;;;;;37.27;19.93;;;3.50;99.90;;;;;;5119776;28;20549;-85
2023/12/06 01:08:54;;;;;;;36.20;20.67;;;3.40;99.90;;;;;;5123619;27;20477;-83
2023/12/06 01:11:21;;;;;;;37.17;19.83;;;3.40;99.90;;;;;;5140501;27;20490;-85
2023/12/06 01:13:47;;;;;;;34.00;18.97;;;3.40;99.90;;;;;;5140260;27;20454;-86
2023/12/06 01:16:14;;;;;;;33.63;18.07;;;3.30;99.90;;;;;;5129072;27;20441;-85
2023/12/06 01:18:42;;;;;;;35.00;18.00;;;3.30;99.90;;;;;;5118669;28;20469;-85
2023/12/06 01:21:09;;;;;;;30.77;15.83;;;3.30;99.90;;;;;;5118442;28;20449;-85
2023/12/06 01:23:36;;;;;;;39.07;20.57;;;3.30;99.90;;;;;;5127576;27;20824;-84
2023/12/06 01:26:03;;;;;;;31.13;17.40;;;3.20;99.90;;;;;;5127191;27;20462;-84
2023/12/06 01:28:32;;;;;;;38.13;18.23;;;3.10;99.90;;;;;;5136588;27;20472;-85
2023/12/06 01:30:59;;;;;;;35.70;19.13;;;3.10;99.90;;;;;;5138352;27;20461;-85
2023/12/06 01:33:25;;;;;;;28.53;15.93;;;3.10;99.90;;;;;;5122152;27;20463;-86
2023/12/06 01:35:53;;;;;;;38.33;18.80;;;3.10;99.90;;;;;;5126790;27;20479;-85
2023/12/06 01:38:20;;;;;;;34.67;19.47;;;3.10;99.90;;;;;;5139278;27;20480;-84
2023/12/06 01:40:47;;;;;;;32.70;16.43;;;3.20;99.90;;;;;;5122849;27;20505;-86
2023/12/06 01:43:14;;;;;;;28.07;14.90;;;3.20;99.90;;;;;;5128512;27;20484;-85
2023/12/06 01:45:41;;;;;;;30.93;17.40;;;3.20;99.90;;;;;;5126189;27;20454;-84
2023/12/06 01:48:08;;;;;;;30.80;15.60;;;3.10;99.90;;;;;;5119895;27;20479;-86
2023/12/06 01:50:38;;;;;;;35.80;16.37;;;3.10;99.90;;;;;;5118477;28;20880;-85
2023/12/06 01:53:06;;;;;;;31.60;16.10;;;3.10;99.90;;;;;;5119972;27;20455;-83
2023/12/06 01:55:34;;;;;;;29.87;16.07;;;3.00;99.90;;;;;;5133581;27;20546;-84
2023/12/06 01:58:02;;;;;;;27.97;16.87;;;3.10;99.90;;;;;;5123281;27;20556;-83
2023/12/06 02:00:29;;;;;;;25.13;14.47;;;3.00;99.90;;;;;;5129949;27;20452;-85
2023/12/06 02:02:56;;;;;;;29.80;16.43;;;3.00;99.90;;;;;;5121844;27;20566;-85
2023/12/06 02:05:23;;;;;;;25.30;15.83;;;3.00;99.90;;;;;;5127360;27;20476;-86
2023/12/06 02:07:51;;;;;;;32.37;16.20;;;3.10;99.90;;;;;;5116804;28;20475;-85
2023/12/06 02:10:20;;;;;;;31.13;15.80;;;3.10;99.90;;;;;;5116281;28;20976;-85
2023/12/06 02:12:47;;;;;;;31.03;16.60;;;3.10;99.90;;;;;;5117624;28;20960;-86
2023/12/06 02:15:13;;;;;;;28.00;14.60;;;3.00;99.90;;;;;;5134784;27;20461;-86
2023/12/06 02:17:41;;;;;;;30.77;15.17;;;3.00;99.90;;;;;;5132679;27;20479;-85
2023/12/06 02:20:10;;;;;;;32.20;15.63;;;2.90;99.90;;;;;;5132560;27;20536;-85
2023/12/06 02:22:37;;;;;;;30.80;15.23;;;2.90;99.90;;;;;;5123480;27;20488;-86
2023/12/06 02:25:05;;;;;;;25.97;14.00;;;2.80;99.90;;;;;;5125463;27;20535;-83
2023/12/06 02:27:33;;;;;;;29.63;14.83;;;2.80;99.90;;;;;;5124024;27;20504;-84
2023/12/06 02:30:00;;;;;;;28.43;15.37;;;2.80;99.90;;;;;;5121726;27;20999;-86
2023/12/06 02:32:27;;;;;;;32.33;15.97;;;2.80;99.90;;;;;;5135970;27;20831;-85
2023/12/06 02:34:56;;;;;;;29.70;15.33;;;2.80;99.90;;;;;;5123823;27;20464;-85
2023/12/06 02:37:24;;;;;;;21.97;12.83;;;2.80;99.90;;;;;;5124935;27;20453;-84
2023/12/06 02:39:53;;;;;;;28.43;15.13;;;2.90;99.90;;;;;;5118192;27;20800;-85
2023/12/06 02:42:20;;;;;;;30.00;15.70;;;2.90;99.90;;;;;;5126302;27;20481;-85
2023/12/06 02:44:48;;;;;;;24.30;14.50;;;2.90;99.90;;;;;;5119184;27;20462;-85
2023/12/06 02:47:15;;;;;;;31.30;16.50;;;2.80;99.90;;;;;;5122240;27;20460;-86
2023/12/06 02:49:42;;;;;;;29.67;15.80;;;2.80;99.90;;;;;;5116971;28;20529;-84
2023/12/06 02:52:09;;;;;;;30.37;16.63;;;2.80;99.90;;;;;;5127535;27;20512;-83
2023/12/06 02:54:36;;;;;;;36.00;15.97;;;2.80;99.90;;;;;;5116053;28;21017;-84
2023/12/06 02:57:03;;;;;;;26.73;15.93;;;2.80;99.90;;;;;;5117118;28;21095;-85
2023/12/06 02:59:29;;;;;;;31.40;15.40;;;2.70;99.90;;;;;;5131606;27;20904;-86
2023/12/06 03:01:58;;;;;;;30.93;17.10;;;2.70;99.90;;;;;;5121884;27;20541;-85
2023/12/06 03:04:24;;;;;;;29.30;15.43;;;2.70;99.90;;;;;;5128293;27;20452;-86
2023/12/06 03:06:51;;;;;;;29.10;15.60;;;2.70;99.90;;;;;;5131358;27;20958;-84
2023/12/06 03:09:18;;;;;;;34.23;17.00;;;2.70;99.90;;;;;;5116513;28;20845;-85
2023/12/06 03:11:45;;;;;;;30.80;15.40;;;2.70;99.90;;;;;;5121431;27;20469;-86
2023/12/06 03:14:11;;;;;;;35.13;17.00;;;2.80;99.90;;;;;;5120224;28;20471;-85
2023/12/06 03:16:38;;;;;;;27.17;15.73;;;2.70;99.90;;;;;;5132492;27;20453;-86
2023/12/06 03:19:06;;;;;;;26.73;15.33;;;2.70;99.90;;;;;;5118948;27;20583;-86
2023/12/06 03:21:33;;;;;;;28.83;15.47;;;2.80;99.90;;;;;;5129019;28;20517;-86
2023/12/06 03:24:00;;;;;;;30.43;18.20;;;2.70;99.90;;;;;;5128736;28;20491;-85
2023/12/06 03:26:27;;;;;;;29.70;16.57;;;2.80;99.90;;;;;;5128684;28;20446;-86
2023/12/06 03:28:54;;;;;;;32.23;17.43;;;2.80;99.90;;;;;;5135227;27;20480;-86
2023/12/06 03:31:19;;;;;;;32.40;16.77;;;2.70;99.90;;;;;;5132137;28;20537;-85
2023/12/06 03:33:48;;;;;;;31.47;17.57;;;2.70;99.90;;;;;;5135679;28;20952;-85
2023/12/06 03:36:16;;;;;;;37.23;18.20;;;2.60;99.90;;;;;;5136049;28;20471;-83
2023/12/06 03:38:46;;;;;;;31.23;16.70;;;2.60;99.90;;;;;;5136016;27;20467;-83
2023/12/06 03:41:13;;;;;;;35.53;19.63;;;2.60;99.90;;;;;;5135205;28;20535;-83
2023/12/06 03:43:39;;;;;;;34.70;17.40;;;2.50;99.90;;;;;;5128575;28;20476;-83
2023/12/06 03:46:08;;;;;;;32.20;17.50;;;2.40;99.90;;;;;;5135954;28;20449;-84
2023/12/06 03:48:38;;;;;;;29.70;16.73;;;2.50;99.90;;;;;;5116720;28;20469;-82
2023/12/06 03:51:05;;;;;;;38.00;21.40;;;2.50;99.90;;;;;;5129421;28;20480;-83
2023/12/06 03:53:33;;;;;;;30.83;18.50;;;2.40;99.90;;;;;;5115639;28;20449;-83
2023/12/06 03:56:00;;;;;;;39.83;21.13;;;2.40;99.90;;;;;;5115787;28;20449;-84
2023/12/06 03:58:27;;;;;;;40.50;22.73;;;2.40;99.90;;;;;;5126846;27;20476;-83
2023/12/06 04:00:55;;;;;;;38.40;22.30;;;2.30;99.90;;;;;;5134434;28;20455;-83
2023/12/06 04:03:22;;;;;;;35.27;22.30;;;2.20;99.90;;;;;;5132627;28;20985;-82
2023/12/06 04:05:49;;;;;;;41.70;23.93;;;2.30;99.90;;;;;;5121988;28;20532;-82
2023/12/06 04:08:16;;;;;;;43.13;23.73;;;2.30;99.90;;;;;;5117248;28;20473;-83
2023/12/06 04:10:44;;;;;;;41.60;24.20;;;2.40;99.90;;;;;;5123183;27;20460;-83
2023/12/06 04:13:11;;;;;;;44.43;23.60;;;2.40;99.90;;;;;;5122399;27;20445;-83
2023/12/06 04:15:38;;;;;;;50.33;26.97;;;2.40;99.90;;;;;;5125767;27;20456;-83
2023/12/06 04:18:05;;;;;;;42.17;25.40;;;2.30;99.90;;;;;;5123208;27;20488;-82
2023/12/06 04:20:32;;;;;;;45.17;24.37;;;2.30;99.90;;;;;;5128125;27;20959;-82
2023/12/06 04:22:59;;;;;;;42.50;26.10;;;2.30;99.90;;;;;;5124131;27;20496;-83
2023/12/06 04:25:26;;;;;;;44.80;24.20;;;2.20;99.90;;;;;;5132262;27;20952;-82
2023/12/06 04:27:53;;;;;;;42.87;22.73;;;2.30;99.90;;;;;;5120063;28;21010;-83
2023/12/06 04:30:19;;;;;;;35.40;21.90;;;2.40;99.90;;;;;;5130736;27;20460;-83
2023/12/06 04:32:46;;;;;;;40.33;23.57;;;2.50;99.90;;;;;;5139130;27;20941;-83
2023/12/06 04:35:13;;;;;;;38.17;22.07;;;2.30;99.90;;;;;;5139652;27;20975;-82
2023/12/06 04:37:41;;;;;;;43.90;22.70;;;2.30;99.90;;;;;;5140340;27;20476;-83
2023/12/06 04:40:09;;;;;;;40.13;23.70;;;2.40;99.90;;;;;;5122333;27;20455;-84
2023/12/06 04:42:35;;;;;;;39.37;23.50;;;2.40;99.90;;;;;;5127336;27;20481;-84
2023/12/06 04:45:04;;;;;;;44.20;24.80;;;2.40;99.90;;;;;;5132677;27;20457;-83
2023/12/06 04:47:34;;;;;;;39.40;23.20;;;2.40;99.90;;;;;;5121446;28;20477;-85
2023/12/06 04:50:00;;;;;;;39.40;23.17;;;2.40;99.90;;;;;;5137289;27;20509;-83
2023/12/06 04:52:27;;;;;;;40.53;23.30;;;2.40;99.90;;;;;;5141748;27;20527;-84
2023/12/06 04:54:54;;;;;;;40.00;25.47;;;2.50;99.90;;;;;;5136942;27;20463;-84
2023/12/06 04:57:21;;;;;;;43.90;25.70;;;2.40;99.90;;;;;;5138015;27;20447;-84
2023/12/06 04:59:47;;;;;;;37.50;24.37;;;2.40;99.90;;;;;;5124100;27;20449;-84
2023/12/06 05:02:18;;;;;;;35.30;23.30;;;2.40;99.90;;;;;;5129043;27;20957;-87
2023/12/06 05:04:45;;;;;;;42.67;27.40;;;2.40;99.90;;;;;;5119915;28;20451;-84
2023/12/06 05:07:11;;;;;;;43.23;26.40;;;2.40;99.90;;;;;;5127861;27;20452;-85
2023/12/06 05:09:40;;;;;;;45.53;25.43;;;2.40;99.90;;;;;;5134772;27;20486;-85
2023/12/06 05:12:07;;;;;;;39.40;22.83;;;2.40;99.90;;;;;;5137991;27;20523;-84
2023/12/06 05:14:34;;;;;;;43.97;25.77;;;2.50;99.90;;;;;;5135055;27;20468;-85
2023/12/06 05:17:01;;;;;;;41.07;24.10;;;2.50;99.90;;;;;;5118500;28;20961;-84
2023/12/06 05:19:29;;;;;;;40.50;23.17;;;2.50;99.90;;;;;;5128930;27;20479;-83
2023/12/06 05:21:56;;;;;;;41.30;25.30;;;2.60;99.90;;;;;;5128868;27;20453;-85
2023/12/06 05:24:23;;;;;;;38.20;23.03;;;2.60;99.90;;;;;;5136408;27;20512;-85
2023/12/06 05:26:49;;;;;;;40.77;25.20;;;2.70;99.90;;;;;;5129936;27;20522;-84
2023/12/06 05:29:16;;;;;;;37.47;22.97;;;2.70;99.90;;;;;;5145284;27;20614;-85
2023/12/06 05:31:43;;;;;;;43.00;24.77;;;2.70;99.90;;;;;;5138654;27;20466;-84
2023/12/06 05:34:10;;;;;;;42.67;24.30;;;2.60;99.90;;;;;;5137740;27;20430;-82
2023/12/06 05:36:38;;;;;;;46.60;27.00;;;2.70;99.90;;;;;;5134001;27;20462;-84
2023/12/06 05:39:07;;;;;;;41.60;24.80;;;2.60;99.90;;;;;;5133894;27;20472;-84
2023/12/06 05:41:35;;;;;;;42.77;27.00;;;2.70;99.90;;;;;;5122696;27;20459;-84
2023/12/06 05:44:04;;;;;;;50.67;28.37;;;2.70;99.90;;;;;;5132214;27;20488;-83
2023/12/06 05:46:31;;;;;;;45.07;27.90;;;2.70;99.90;;;;;;5132220;27;20513;-86
2023/12/06 05:48:58;;;;;;;51.20;30.90;;;2.70;99.90;;;;;;5136965;27;20479;-85
2023/12/06 05:51:25;;;;;;;48.50;29.93;;;2.70;99.90;;;;;;5144246;27;20548;-82
2023/12/06 05:53:53;;;;;;;44.60;26.90;;;2.80;99.90;;;;;;5138240;27;20949;-84
2023/12/06 05:56:22;;;;;;;45.53;27.67;;;2.80;99.90;;;;;;5131618;27;20515;-82
2023/12/06 05:58:50;;;;;;;44.73;27.23;;;2.80;99.90;;;;;;5137456;27;21000;-80
2023/12/06 06:01:16;;;;;;;42.80;26.47;;;2.90;99.90;;;;;;5142226;27;20934;-81
2023/12/06 06:03:43;;;;;;;44.53;26.63;;;2.90;99.90;;;;;;5141569;27;20492;-81
2023/12/06 06:06:10;;;;;;;46.13;28.43;;;2.90;99.90;;;;;;5117601;27;20430;-82
2023/12/06 06:08:37;;;;;;;44.43;26.70;;;2.90;99.90;;;;;;5137180;27;20553;-81
2023/12/06 06:11:09;;;;;;;48.33;28.90;;;2.90;99.90;;;;;;5130078;27;20461;-80
2023/12/06 06:13:35;;;;;;;48.30;28.33;;;2.90;99.90;;;;;;5133904;27;20452;-81
2023/12/06 06:16:02;;;;;;;43.70;26.77;;;2.90;99.90;;;;;;5139760;27;20466;-82
2023/12/06 06:18:29;;;;;;;49.73;30.07;;;2.90;99.90;;;;;;5138921;27;20477;-83
2023/12/06 06:21:05;;;;;;;52.27;28.10;;;3.00;99.90;;;;;;5129894;27;20457;-81
2023/12/06 06:23:32;;;;;;;46.40;28.13;;;3.00;99.90;;;;;;5136066;27;20528;-83
2023/12/06 06:25:59;;;;;;;52.13;30.77;;;3.00;99.90;;;;;;5135594;27;20453;-83
2023/12/06 06:28:29;;;;;;;44.20;26.90;;;3.00;99.90;;;;;;5136516;27;20480;-81
2023/12/06 06:30:56;;;;;;;40.63;25.27;;;3.00;99.90;;;;;;5132032;27;20521;-82
2023/12/06 06:33:23;;;;;;;49.73;27.13;;;3.00;99.90;;;;;;5134692;27;20450;-82
2023/12/06 06:35:50;;;;;;;43.63;25.83;;;3.10;99.90;;;;;;5130472;27;20454;-81
2023/12/06 06:38:17;;;;;;;50.53;28.63;;;3.10;99.90;;;;;;5125627;27;20825;-83
2023/12/06 06:40:43;;;;;;;50.53;28.43;;;3.10;99.90;;;;;;5123926;27;20449;-83
2023/12/06 06:43:10;;;;;;;44.10;27.83;;;3.10;99.90;;;;;;5125937;27;20517;-83
2023/12/06 06:45:42;;;;;;;49.77;27.47;;;3.20;99.90;;;;;;5131051;27;20452;-82
2023/12/06 06:48:09;;;;;;;51.70;28.17;;;3.10;99.90;;;;;;5127586;27;20855;-83
2023/12/06 06:50:36;;;;;;;44.10;25.97;;;3.10;99.90;;;;;;5120230;27;20934;-81
2023/12/06 06:53:03;;;;;;;40.37;24.93;;;3.10;99.90;;;;;;5128687;27;20443;-82
2023/12/06 06:55:30;;;;;;;52.20;28.07;;;3.10;99.90;;;;;;5135788;27;20651;-81
2023/12/06 06:57:58;;;;;;;39.57;24.70;;;3.20;99.90;;;;;;5135371;27;20877;-82
2023/12/06 07:00:25;;;;;;;45.80;27.23;;;3.20;99.90;;;;;;5128930;27;20605;-80
2023/12/06 07:02:53;;;;;;;42.07;26.70;;;3.20;99.90;;;;;;5138464;27;20463;-83
2023/12/06 07:05:20;;;;;;;43.90;25.20;;;3.30;99.90;;;;;;5133881;27;20452;-81
2023/12/06 07:07:47;;;;;;;40.53;23.73;;;3.40;99.90;;;;;;5121398;27;20471;-82
2023/12/06 07:10:14;;;;;;;38.40;24.00;;;3.40;99.90;;;;;;5129665;27;20494;-82
2023/12/06 07:12:41;;;;;;;38.83;25.20;;;3.40;99.90;;;;;;5137479;27;20483;-82
2023/12/06 07:15:14;;;;;;;35.80;23.30;;;3.40;99.90;;;;;;5133986;27;20469;-82
2023/12/06 07:17:42;;;;;;;42.67;25.07;;;3.50;99.90;;;;;;5137919;27;20477;-81
2023/12/06 07:20:12;;;;;;;37.80;24.20;;;3.50;99.90;;;;;;5131911;27;20553;-82
2023/12/06 07:22:39;;;;;;;39.17;22.40;;;3.40;99.90;;;;;;5136553;27;20453;-82
2023/12/06 07:25:06;;;;;;;36.43;23.20;;;3.40;99.90;;;;;;5128166;28;20485;-82
2023/12/06 07:27:33;;;;;;;38.80;23.83;;;3.50;99.90;;;;;;5135571;28;21039;-82
2023/12/06 07:30:00;;;;;;;31.50;21.60;;;3.40;99.90;;;;;;5129911;28;20460;-81
2023/12/06 07:32:26;;;;;;;38.20;23.40;;;3.50;99.90;;;;;;5138031;28;20454;-80
2023/12/06 07:34:53;;;;;;;31.53;21.33;;;3.50;99.90;;;;;;5142627;28;20440;-81
2023/12/06 07:37:21;;;;;;;33.40;20.60;;;3.50;99.90;;;;;;5142230;27;20892;-82
2023/12/06 07:39:48;;;;;;;37.60;22.23;;;3.60;99.90;;;;;;5140442;28;20431;-81
2023/12/06 07:42:15;;;;;;;32.30;21.03;;;3.60;99.90;;;;;;5142159;28;20443;-82
2023/12/06 07:44:42;;;;;;;37.03;21.83;;;3.60;99.90;;;;;;5141883;27;20478;-81
2023/12/06 07:47:08;;;;;;;37.10;23.93;;;3.60;99.90;;;;;;5144179;27;20450;-81
2023/12/06 07:49:35;;;;;;;66.63;35.77;;;3.60;99.90;;;;;;5137515;27;20460;-83
2023/12/06 07:52:02;;;;;;;38.23;23.63;;;3.70;99.90;;;;;;5143642;27;21255;-82
2023/12/06 07:54:30;;;;;;;35.37;22.23;;;3.70;99.90;;;;;;5143303;27;20462;-83
2023/12/06 07:56:57;;;;;;;36.80;22.53;;;3.70;99.90;;;;;;5145284;27;20474;-83
2023/12/06 07:59:24;;;;;;;34.97;19.90;;;3.70;99.90;;;;;;5133505;27;20571;-83
2023/12/06 08:01:51;;;;;;;36.27;20.97;;;3.70;99.90;;;;;;5136611;27;20442;-83
2023/12/06 08:04:18;;;;;;;35.57;21.50;;;3.80;99.90;;;;;;5137195;27;20478;-82
2023/12/06 08:06:45;;;;;;;32.83;21.57;;;3.70;99.90;;;;;;5138225;27;20942;-83
2023/12/06 08:09:12;;;;;;;32.97;21.50;;;3.80;99.90;;;;;;5134938;27;20463;-82
2023/12/06 08:11:41;;;;;;;33.83;20.50;;;3.80;99.90;;;;;;5139098;27;20479;-82
2023/12/06 08:14:08;;;;;;;38.87;23.33;;;3.80;99.90;;;;;;5139287;27;20476;-82
2023/12/06 08:16:35;;;;;;;36.53;22.63;;;3.80;99.90;;;;;;5138365;27;20859;-82
2023/12/06 08:19:01;;;;;;;32.30;22.73;;;3.90;99.90;;;;;;5139766;27;20540;-82
2023/12/06 08:21:28;;;;;;;39.80;22.60;;;3.80;99.90;;;;;;5143841;27;20450;-81
2023/12/06 08:23:55;;;;;;;35.20;22.03;;;3.80;99.90;;;;;;5147816;27;20458;-83
2023/12/06 08:26:22;;;;;;;34.90;21.00;;;3.80;99.90;;;;;;5140827;27;20465;-82
2023/12/06 08:28:50;;;;;;;35.33;21.47;;;3.90;99.90;;;;;;5141750;27;20468;-81
2023/12/06 08:31:17;;;;;;;37.43;22.73;;;3.90;99.90;;;;;;5137712;27;20462;-82
2023/12/06 08:33:44;;;;;;;34.87;20.57;;;3.90;99.90;;;;;;5135663;27;20466;-82
2023/12/06 08:36:11;;;;;;;31.53;20.97;;;4.00;99.90;;;;;;5134673;27;20466;-82
2023/12/06 08:38:38;;;;;;;36.60;22.50;;;4.00;99.90;;;;;;5122492;28;21035;-83
2023/12/06 08:41:07;;;;;;;30.30;20.43;;;4.00;99.90;;;;;;5130002;27;20469;-82
2023/12/06 08:43:35;;;;;;;29.13;19.20;;;4.00;99.90;;;;;;5123271;28;20446;-82
2023/12/06 08:46:03;;;;;;;29.27;19.70;;;4.00;99.90;;;;;;5123894;28;20465;-81
2023/12/06 08:48:33;;;;;;;31.93;21.10;;;4.10;99.90;;;;;;5122103;28;20469;-82
2023/12/06 08:51:00;;;;;;;26.87;19.60;;;4.10;99.90;;;;;;5129587;27;20545;-82
2023/12/06 08:53:27;;;;;;;30.50;20.40;;;4.10;99.90;;;;;;5135316;27;20446;-82
2023/12/06 08:55:56;;;;;;;36.10;19.87;;;4.10;99.90;;;;;;5143223;27;20447;-80
2023/12/06 08:58:23;;;;;;;32.10;21.97;;;4.10;99.90;;;;;;5142757;27;20483;-82
2023/12/06 09:00:50;;;;;;;34.83;20.20;;;4.10;99.90;;;;;;5142195;27;20454;-82
2023/12/06 09:03:18;;;;;;;28.37;20.47;;;4.00;99.90;;;;;;5123491;27;20455;-80
2023/12/06 09:05:45;;;;;;;35.20;23.73;;;4.10;99.90;;;;;;5122688;28;20485;-81
2023/12/06 09:08:12;;;;;;;36.47;21.97;;;4.10;99.90;;;;;;5121388;28;20580;-82
2023/12/06 09:10:39;;;;;;;32.27;22.13;;;4.20;99.90;;;;;;5128359;27;20545;-81
2023/12/06 09:13:06;;;;;;;32.17;22.20;;;4.20;99.90;;;;;;5121884;28;20460;-81
2023/12/06 09:15:33;;;;;;;30.93;20.43;;;4.20;99.90;;;;;;5122455;28;20478;-82
2023/12/06 09:17:59;;;;;;;34.23;22.37;;;4.20;99.90;;;;;;5121748;28;20474;-81
2023/12/06 09:20:28;;;;;;;29.27;20.10;;;4.20;99.90;;;;;;5129079;27;20451;-82
2023/12/06 09:22:54;;;;;;;30.93;20.57;;;4.30;99.90;;;;;;5121159;28;20450;-82
2023/12/06 09:25:22;;;;;;;28.57;20.50;;;4.30;99.90;;;;;;5121754;28;21230;-81
2023/12/06 09:27:50;;;;;;;27.10;20.93;;;4.40;99.90;;;;;;5120859;28;20474;-82
2023/12/06 09:30:17;;;;;;;31.30;21.37;;;4.40;99.90;;;;;;5128409;27;20543;-82
2023/12/06 09:32:45;;;;;;;37.03;22.17;;;4.40;99.90;;;;;;5127279;27;20537;-80
2023/12/06 09:35:11;;;;;;;36.60;23.70;;;4.40;99.90;;;;;;5121689;28;20476;-81
2023/12/06 09:37:40;;;;;;;28.03;19.60;;;4.30;99.90;;;;;;5121111;28;20490;-82
2023/12/06 09:40:09;;;;;;;29.43;18.40;;;4.40;99.90;;;;;;5125358;27;20878;-82
2023/12/06 09:42:41;;;;;;;27.17;19.20;;;4.40;99.90;;;;;;5121523;28;20481;-81
2023/12/06 09:45:12;;;;;;;28.07;20.27;;;4.40;99.90;;;;;;5129271;27;20578;-81
2023/12/06 09:47:42;;;;;;;30.23;22.17;;;4.50;99.90;;;;;;5126518;27;20471;-81
2023/12/06 09:50:10;;;;;;;31.67;20.20;;;4.50;99.90;;;;;;5125959;27;20543;-81
2023/12/06 09:52:37;;;;;;;28.93;19.60;;;4.50;99.90;;;;;;5134339;27;20454;-80
2023/12/06 09:55:06;;;;;;;28.77;19.43;;;4.50;99.90;;;;;;5119633;28;20449;-81
2023/12/06 09:57:33;;;;;;;27.67;20.37;;;4.60;99.90;;;;;;5141986;27;21019;-80
2023/12/06 10:00:00;;;;;;;30.87;19.17;;;4.60;99.90;;;;;;5136607;27;20461;-82
2023/12/06 10:02:27;;;;;;;24.27;18.67;;;4.60;99.90;;;;;;5131125;27;20451;-81
2023/12/06 10:04:55;;;;;;;23.87;18.67;;;4.70;99.90;;;;;;5127273;27;20551;-82
2023/12/06 10:07:22;;;;;;;26.67;19.10;;;4.80;99.90;;;;;;5129609;27;20464;-81
2023/12/06 10:09:52;;;;;;;25.90;18.63;;;4.80;99.90;;;;;;5129976;27;20462;-85
2023/12/06 10:12:21;;;;;;;23.43;18.17;;;4.90;99.90;;;;;;5120848;28;20835;-83
2023/12/06 10:14:58;;;;;;;22.47;16.53;;;4.90;99.90;;;;;;5125560;27;20848;-81
2023/12/06 10:17:25;;;;;;;24.10;17.90;;;4.90;99.90;;;;;;5128676;27;20456;-83
2023/12/06 10:19:52;;;;;;;22.27;17.37;;;4.80;99.90;;;;;;5131417;27;20459;-80
2023/12/06 10:22:19;;;;;;;23.30;17.77;;;4.80;99.90;;;;;;5118429;28;20456;-83
2023/12/06 10:24:45;;;;;;;18.90;14.97;;;4.80;99.90;;;;;;5120047;28;20510;-81
2023/12/06 10:27:12;;;;;;;21.07;15.83;;;4.90;99.90;;;;;;5119057;28;20456;-83
2023/12/06 10:29:40;;;;;;;20.20;15.60;;;5.00;99.90;;;;;;5117317;28;20452;-82
2023/12/06 10:32:09;;;;;;;17.63;14.03;;;5.10;99.90;;;;;;5118691;27;20534;-82
2023/12/06 10:34:38;;;;;;;21.23;17.57;;;5.10;99.90;;;;;;5133546;27;20446;-81
2023/12/06 10:37:05;;;;;;;20.17;16.40;;;5.00;99.90;;;;;;5118618;28;20452;-80
2023/12/06 10:39:37;;;;;;;17.93;15.30;;;5.00;99.90;;;;;;5117601;28;20502;-82
2023/12/06 10:42:13;;;;;;;20.70;14.50;;;4.90;99.90;;;;;;5118330;28;20450;-81
2023/12/06 10:44:42;;;;;;;20.10;15.17;;;4.90;99.90;;;;;;5123594;27;20489;-80
2023/12/06 10:47:09;;;;;;;16.77;12.97;;;5.00;99.90;;;;;;5123910;27;20449;-82
2023/12/06 10:49:37;;;;;;;16.80;15.03;;;5.00;99.90;;;;;;5124512;27;21084;-82
2023/12/06 10:52:05;;;;;;;16.87;13.70;;;5.10;99.90;;;;;;5120318;27;20455;-81
2023/12/06 10:54:32;;;;;;;17.83;15.30;;;5.20;99.90;;;;;;5117236;28;20781;-81
2023/12/06 10:57:01;;;;;;;17.67;14.43;;;5.30;99.90;;;;;;5117196;28;20456;-82
2023/12/06 10:59:30;;;;;;;15.97;13.30;;;5.30;99.90;;;;;;5128732;27;20528;-80
2023/12/06 11:01:59;;;;;;;14.70;13.10;;;5.40;99.90;;;;;;5120694;27;20452;-80
2023/12/06 11:04:29;;;;;;;15.63;13.70;;;5.50;99.90;;;;;;5121301;28;20571;-81
2023/12/06 11:07:05;;;;;;;14.37;12.77;;;5.50;99.90;;;;;;5131933;27;20540;-82
2023/12/06 11:09:40;;;;;;;15.53;13.17;;;5.50;99.90;;;;;;5122035;27;20496;-82
2023/12/06 11:12:23;;;;;;;15.57;12.87;;;5.60;99.90;;;;;;5098676;28;20455;-82
2023/12/06 11:15:12;;;;;;;18.73;15.70;;;5.50;99.90;;;;;;5116706;28;20441;-82
2023/12/06 11:17:51;;;;;;;19.47;16.13;;;5.50;99.90;;;;;;5130783;27;20471;-81
2023/12/06 11:20:18;;;;;;;17.80;14.67;;;5.50;99.90;;;;;;5135611;27;20947;-82
2023/12/06 11:22:45;;;;;;;27.70;19.40;;;5.50;99.90;;;;;;5130800;27;20503;-80
2023/12/06 11:25:14;;;;;;;20.17;14.90;;;5.50;99.90;;;;;;5120238;28;20829;-82
2023/12/06 11:27:42;;;;;;;21.70;14.53;;;5.50;99.90;;;;;;5136263;28;21019;-83
2023/12/06 11:30:18;;;;;;;25.33;17.60;;;5.50;99.90;;;;;;5128095;28;20490;-82
2023/12/06 11:32:47;;;;;;;21.50;15.07;;;5.60;99.90;;;;;;5130543;28;20453;-80
2023/12/06 11:35:13;;;;;;;21.83;17.00;;;5.60;99.90;;;;;;5116741;28;20543;-82
2023/12/06 11:37:51;;;;;;;26.30;16.47;;;5.70;99.90;;;;;;5116131;28;20479;-81
2023/12/06 11:40:18;;;;;;;22.73;18.17;;;5.80;99.90;;;;;;5116267;28;20893;-82
2023/12/06 11:42:54;;;;;;;20.50;16.47;;;5.80;99.90;;;;;;5116370;28;20477;-82
2023/12/06 11:45:26;;;;;;;28.43;20.33;;;5.80;99.90;;;;;;5136016;28;20528;-82
2023/12/06 11:47:54;;;;;;;23.17;16.20;;;5.80;99.90;;;;;;5134440;28;20570;-82
2023/12/06 11:50:23;;;;;;;24.07;19.00;;;5.80;99.90;;;;;;5117632;28;20459;-83
2023/12/06 11:53:16;;;;;;;20.90;16.60;;;5.90;99.90;;;;;;5134737;28;20487;-81
2023/12/06 11:55:47;;;;;;;25.23;17.60;;;5.90;99.90;;;;;;5129364;28;20872;-81
2023/12/06 11:58:15;;;;;;;25.67;18.40;;;5.90;99.90;;;;;;5135210;27;21009;-82
2023/12/06 12:00:44;;;;;;;26.37;17.83;;;5.90;99.90;;;;;;5132271;28;20452;-84
2023/12/06 12:03:14;;;;;;;22.97;16.63;;;5.90;99.90;;;;;;5136261;28;20454;-83
2023/12/06 12:05:42;;;;;;;22.63;17.63;;;5.90;99.90;;;;;;5128173;28;20482;-82
2023/12/06 12:08:11;;;;;;;24.03;17.77;;;5.70;99.90;;;;;;5119133;28;20485;-83
2023/12/06 12:10:38;;;;;;;26.80;18.63;;;5.80;99.90;;;;;;5132952;28;20463;-84
2023/12/06 12:13:05;;;;;;;28.40;19.40;;;5.80;99.90;;;;;;5136748;28;20460;-83
2023/12/06 12:15:32;;;;;;;24.73;17.40;;;5.80;99.90;;;;;;5129111;28;20445;-83
2023/12/06 12:17:59;;;;;;;25.20;17.87;;;5.80;99.90;;;;;;5142532;27;20464;-84
2023/12/06 12:20:27;;;;;;;25.23;17.10;;;5.80;99.90;;;;;;5144527;28;20532;-83
2023/12/06 12:22:55;;;;;;;26.30;19.27;;;5.80;99.90;;;;;;5146081;28;20459;-83
2023/12/06 12:25:23;;;;;;;23.80;18.07;;;5.80;99.90;;;;;;5137670;28;20491;-82
2023/12/06 12:27:50;;;;;;;23.57;17.83;;;5.80;99.90;;;;;;5138330;28;20480;-81
2023/12/06 12:30:17;;;;;;;27.40;19.67;;;5.80;99.90;;;;;;5135544;27;20479;-82
2023/12/06 12:32:48;;;;;;;32.37;22.70;;;5.90;99.90;;;;;;5136196;27;20454;-82
2023/12/06 12:35:15;;;;;;;26.13;18.60;;;5.80;99.90;;;;;;5132804;27;20447;-83
2023/12/06 12:37:44;;;;;;;22.87;16.90;;;5.80;99.90;;;;;;5133119;27;21075;-81